Impacts METAR Board
IDs:

KDEN - Denver Intl, CO, US

Updated at: 1100 UTC 23 May 2018
Potential Impact None Slight Moderate High
Time 22/23Z 23/00Z 23/01Z 23/02Z 23/03Z 23/04Z 23/05Z 23/06Z 23/07Z 23/08Z 23/09Z 23/10Z 23/11Z
Temp77 77 76 64 62 61 59 58 56 53 56 55 52
Dewpt42 41 42 49 47 46 46 46 46 46 45 45 44
Altim29.83 29.83 29.84 29.90 29.95 29.97 30.00 30.00 30.00 30.00 30.01 30.01 30.03
VIS10 10 10 10 10 10 10 10 10 10 10 10 10
CIG130 140 100 160 160 220 220 80 -- -- -- -- --
CoverBKNBKNBKNBKNBKNBKNBKNBKNSCTFEWSCTFEWFEW
FltCatVFRVFRVFRVFRVFRVFRVFRVFRVFRVFRVFRVFRVFR
WX-----RA-------RA------------
WDir1200280320320330603402602402100210
WSpd15 0 12 23 14 11 4 8 6 6 4 0 6
WGst21 -- 20 30 -- -- -- -- -- -- -- -- --
Raw hourly METARs
KDEN 222253Z 12015G21KT 10SM FEW100 BKN130 BKN220 25/06 A2983 RMK AO2 LTG DSNT W AND NW SLP038 VIRGA SW-NW T02500056
KDEN 230000Z 00000KT 10SM SCT080 BKN140 BKN220 25/05 A2983 RMK AO2 LTG DSNT N TS DSIPT T02500050
KDEN 230053Z 28012G20KT 10SM -RA BKN100 BKN160 BKN220 24/06 A2984 RMK AO2 LTG DSNT E RAB50 SLP040 P0000 T02440056
KDEN 230153Z 32023G30KT 10SM SCT120 BKN160 BKN220 18/09 A2990 RMK AO2 PK WND 30036/0141 LTG DSNT NW RAE04 SLP067 P0000 T01780094
KDEN 230253Z 32014KT 10SM SCT100 BKN160 BKN220 17/08 A2995 RMK AO2 PK WND 32031/0157 SLP080 VIRGA SW-W 60000 T01670083 53032
KDEN 230353Z 33011KT 10SM SCT100 SCT160 BKN220 16/08 A2997 RMK AO2 SLP084 T01610078
KDEN 230453Z 06004KT 10SM -RA FEW055 SCT090 BKN220 15/08 A3000 RMK AO2 RAB44 SLP091 P0000 T01500078
KDEN 230553Z 34008KT 10SM FEW040 BKN080 BKN200 14/08 A3000 RMK AO2 RAE0458 SLP088 P0000 60000 T01440078 10261 20139 50014
KDEN 230653Z 26006KT 10SM FEW085 SCT200 13/08 A3000 RMK AO2 SLP090 T01330078 402720089
KDEN 230753Z 24006KT 10SM FEW085 FEW200 12/08 A3000 RMK AO2 SLP089 T01170078
KDEN 230853Z 21004KT 10SM SCT220 13/07 A3001 RMK AO2 SLP091 T01330072 53005
KDEN 230953Z 00000KT 10SM FEW220 13/07 A3001 RMK AO2 SLP089 T01280072
KDEN 231053Z 21006KT 10SM FEW140 FEW220 11/07 A3003 RMK AO2 SLP103 T01110067



Page loaded:  11:05 UTC  |   04:05 AM Pacific  |   05:05 AM Mountain  |   06:05 AM Central  |   07:05 AM Eastern

 

ADVISORIES

FORECASTS

FORECASTS

OBSERVATIONS

USER TOOLS

ABOUT US